Terminal Aerodrome Forecast
Issued by NWS Green Bay, WI

Home | Current Version | Previous Version | Text Only | Print | Product List | Glossary Off
Versions: 1 2 3 4 5 6 7 8 9 10 11 12 13 14 15 16 17 18 19 20 21 22 23 24 25 26 27 28 29 30 31 32 33 34 35 36 37 38 39 40 41

000
FTUS43 KGRB 261700
TAFGRB
TAF
KGRB 261732Z 2618/2718 17008KT P6SM BKN028 OVC050
     FM261900 17008KT 2SM -SN BKN018 OVC025
     FM270400 11005KT 3SM -SN SCT009 OVC015
     FM270800 07005KT 6SM -SN SCT009 OVC015
     FM271100 02004KT P6SM OVC018
     FM271500 05005KT P6SM SCT025 BKN035=

USA.gov is the U.S. government's official web portal to all federal, state and local government web resources and services.